createdAt,value
2023-05-02T00:01:38.666Z,38.80
2023-05-02T00:04:05.855Z,40.15
2023-05-02T00:06:32.736Z,39.63
2023-05-02T00:08:59.921Z,41.28
2023-05-02T00:11:26.574Z,42.72
2023-05-02T00:13:53.248Z,41.35
2023-05-02T00:16:20.039Z,38.47
2023-05-02T00:18:56.938Z,39.63
2023-05-02T00:21:23.673Z,38.60
2023-05-02T00:23:51.565Z,37.60
2023-05-02T00:26:18.219Z,39.17
2023-05-02T00:28:46.356Z,34.80
2023-05-02T00:31:13.122Z,39.97
2023-05-02T00:33:39.873Z,37.08
2023-05-02T00:36:18.562Z,34.58
2023-05-02T00:38:45.874Z,33.72
2023-05-02T00:41:12.919Z,31.20
2023-05-02T00:43:39.698Z,31.42
2023-05-02T00:46:07.864Z,31.40
2023-05-02T00:48:35.410Z,29.58
2023-05-02T00:51:05.419Z,28.63
2023-05-02T00:53:32.669Z,28.23
2023-05-02T00:55:59.700Z,26.13
2023-05-02T00:58:26.993Z,23.90
2023-05-02T01:01:07.095Z,20.40
2023-05-02T01:03:44.797Z,20.50
2023-05-02T01:06:41.944Z,15.73
2023-05-02T01:09:39.494Z,15.85
2023-05-02T01:12:31.237Z,14.07
2023-05-02T01:14:59.441Z,15.85
2023-05-02T01:17:32.751Z,16.40
2023-05-02T01:20:10.019Z,17.73
2023-05-02T01:22:40.442Z,12.80
2023-05-02T01:25:25.214Z,11.18
2023-05-02T01:27:58.585Z,12.20
2023-05-02T01:30:27.765Z,15.82
2023-05-02T01:32:56.848Z,10.65
2023-05-02T01:35:25.876Z,9.70
2023-05-02T01:37:55.952Z,7.68
2023-05-02T01:40:25.754Z,9.40
2023-05-02T01:42:54.473Z,5.75
2023-05-02T01:45:22.552Z,6.40
2023-05-02T01:47:51.277Z,6.75
2023-05-02T01:50:22.803Z,4.53
2023-05-02T01:52:52.859Z,8.27
2023-05-02T01:55:20.056Z,8.85
2023-05-02T01:57:50.381Z,10.68
2023-05-02T02:00:19.177Z,13.70
2023-05-02T02:02:48.089Z,10.93
2023-05-02T02:05:17.305Z,8.77
2023-05-02T02:07:44.536Z,14.02
2023-05-02T02:10:12.194Z,13.38
2023-05-02T02:12:42.621Z,12.52
2023-05-02T02:15:18.169Z,9.35
2023-05-02T02:17:58.982Z,16.00
2023-05-02T02:20:32.196Z,8.83
2023-05-02T02:23:03.095Z,11.85
2023-05-02T02:25:30.097Z,15.70
2023-05-02T02:27:57.169Z,11.68
2023-05-02T02:30:24.011Z,11.45
2023-05-02T02:32:51.018Z,7.43
2023-05-02T02:35:18.215Z,8.23
2023-05-02T02:37:54.712Z,13.32
2023-05-02T02:40:34.579Z,5.63
2023-05-02T02:43:19.031Z,10.82
2023-05-02T02:46:21.757Z,5.82
2023-05-02T02:49:06.823Z,7.50
2023-05-02T02:51:43.302Z,11.80
2023-05-02T02:54:26.604Z,9.13
2023-05-02T02:57:37.533Z,8.48
2023-05-02T03:00:13.623Z,5.93
2023-05-02T03:02:43.033Z,8.35
2023-05-02T03:05:11.298Z,8.73
2023-05-02T03:07:38.083Z,5.47
2023-05-02T03:10:05.847Z,10.65
2023-05-02T03:12:34.274Z,10.38
2023-05-02T03:15:15.007Z,9.23
2023-05-02T03:17:46.572Z,6.47
2023-05-02T03:20:13.352Z,5.68
2023-05-02T03:22:40.056Z,5.88
2023-05-02T03:25:07.597Z,4.78
2023-05-02T03:27:34.668Z,8.20
2023-05-02T03:30:04.215Z,8.45
2023-05-02T03:32:32.022Z,4.10
2023-05-02T03:35:00.098Z,5.97
2023-05-02T03:37:34.509Z,8.90
2023-05-02T03:40:01.836Z,8.68
2023-05-02T03:42:29.429Z,4.43
2023-05-02T03:44:57.935Z,9.75
2023-05-02T03:47:27.205Z,5.72
2023-05-02T03:49:53.979Z,10.27
2023-05-02T03:52:21.220Z,12.45
2023-05-02T03:54:50.182Z,5.70
2023-05-02T03:57:17.432Z,9.40
2023-05-02T03:59:45.741Z,7.95
2023-05-02T04:02:21.217Z,8.95
2023-05-02T04:04:49.483Z,7.68
2023-05-02T04:07:19.767Z,9.93
2023-05-02T04:09:51.944Z,12.48
2023-05-02T04:12:18.720Z,11.77
2023-05-02T04:14:48.715Z,10.43
2023-05-02T04:17:16.151Z,12.30
2023-05-02T04:19:46.418Z,8.68
2023-05-02T04:22:13.889Z,6.63
2023-05-02T04:24:46.026Z,7.57
2023-05-02T04:27:15.154Z,13.00
2023-05-02T04:29:42.381Z,9.02
2023-05-02T04:32:11.573Z,11.63
2023-05-02T04:34:38.971Z,11.88
2023-05-02T04:37:06.218Z,10.77
2023-05-02T04:39:34.336Z,12.93
2023-05-02T04:42:04.934Z,8.20
2023-05-02T04:44:36.576Z,11.45
2023-05-02T04:47:04.594Z,9.60
2023-05-02T04:49:32.399Z,7.05
2023-05-02T04:51:59.258Z,13.30
2023-05-02T04:54:26.082Z,8.02
2023-05-02T04:56:52.809Z,9.55
2023-05-02T04:59:20.967Z,6.32
2023-05-02T05:01:48.779Z,11.10
2023-05-02T05:04:17.776Z,9.35
2023-05-02T05:06:44.600Z,11.70
2023-05-02T05:09:12.215Z,14.23
2023-05-02T05:11:39.612Z,12.32
2023-05-02T05:14:07.133Z,12.45
2023-05-02T05:16:37.566Z,14.45
2023-05-02T05:19:05.166Z,10.73
2023-05-02T05:21:31.829Z,11.82
2023-05-02T05:23:59.950Z,13.10
2023-05-02T05:26:29.540Z,17.48
2023-05-02T05:28:56.201Z,17.40
2023-05-02T05:31:26.117Z,13.40
2023-05-02T05:33:57.240Z,13.57
2023-05-02T05:36:25.676Z,10.43
2023-05-02T05:38:52.413Z,14.95
2023-05-02T05:41:19.560Z,14.40
2023-05-02T05:43:50.229Z,16.52
2023-05-02T05:46:17.052Z,17.98
2023-05-02T05:48:43.740Z,17.15
2023-05-02T05:51:10.696Z,16.90
2023-05-02T05:53:37.411Z,15.05
2023-05-02T05:56:13.783Z,18.10
2023-05-02T05:58:49.699Z,24.98
2023-05-02T06:01:16.728Z,17.08
2023-05-02T06:03:44.009Z,14.98
2023-05-02T06:06:11.107Z,12.90
2023-05-02T06:08:37.765Z,13.00
2023-05-02T06:11:12.354Z,21.17
2023-05-02T06:13:39.132Z,12.32
2023-05-02T06:16:07.271Z,15.93
2023-05-02T06:18:34.008Z,21.90
2023-05-02T06:21:04.886Z,18.02
2023-05-02T06:23:33.298Z,13.68
2023-05-02T06:26:03.326Z,16.33
2023-05-02T06:28:30.699Z,16.15
2023-05-02T06:31:01.830Z,17.50
2023-05-02T06:33:29.823Z,13.60
2023-05-02T06:35:58.170Z,12.05
2023-05-02T06:38:26.060Z,10.43
2023-05-02T06:40:57.535Z,13.82
2023-05-02T06:43:24.243Z,15.57
2023-05-02T06:45:54.428Z,18.13
2023-05-02T06:48:21.664Z,14.38
2023-05-02T06:50:49.358Z,15.43
2023-05-02T06:53:16.338Z,11.63
2023-05-02T06:55:44.202Z,12.40
2023-05-02T06:58:12.598Z,10.25
2023-05-02T07:00:39.325Z,8.50
2023-05-02T07:03:06.185Z,15.52
2023-05-02T07:05:32.961Z,14.05
2023-05-02T07:07:59.693Z,7.88
2023-05-02T07:10:26.532Z,8.38
2023-05-02T07:12:53.224Z,11.93
2023-05-02T07:15:19.947Z,12.68
2023-05-02T07:17:47.721Z,17.33
2023-05-02T07:20:15.505Z,10.75
2023-05-02T07:22:42.899Z,14.13
2023-05-02T07:25:09.867Z,12.95
2023-05-02T07:27:36.571Z,13.55
2023-05-02T07:30:03.762Z,12.70
2023-05-02T07:32:31.510Z,12.55
2023-05-02T07:34:58.341Z,12.02
2023-05-02T07:37:25.084Z,8.40
2023-05-02T07:39:52.426Z,11.60
2023-05-02T07:42:19.069Z,9.68
2023-05-02T07:44:45.716Z,16.50
2023-05-02T07:47:12.386Z,11.48
2023-05-02T07:49:39.968Z,14.50
2023-05-02T07:52:06.700Z,8.65
2023-05-02T07:54:33.448Z,9.38
2023-05-02T07:57:02.873Z,11.18
2023-05-02T07:59:31.379Z,11.98
2023-05-02T08:02:00.954Z,10.93
2023-05-02T08:04:27.830Z,10.73
2023-05-02T08:06:55.567Z,10.20
2023-05-02T08:09:22.408Z,11.55
2023-05-02T08:11:49.181Z,11.32
2023-05-02T08:14:16.486Z,6.55
2023-05-02T08:16:46.938Z,11.30
2023-05-02T08:19:13.854Z,10.55
2023-05-02T08:21:40.734Z,11.73
2023-05-02T08:24:10.072Z,13.20
2023-05-02T08:26:36.742Z,11.43
2023-05-02T08:29:04.454Z,12.35
2023-05-02T08:31:33.778Z,9.10
2023-05-02T08:34:00.663Z,7.32
2023-05-02T08:36:28.779Z,15.05
2023-05-02T08:39:00.929Z,11.32
2023-05-02T08:41:29.554Z,10.38
2023-05-02T08:43:57.029Z,7.38
2023-05-02T08:46:24.474Z,11.45
2023-05-02T08:48:52.453Z,6.57
2023-05-02T08:53:46.922Z,8.63
2023-05-02T08:56:13.733Z,6.25
2023-05-02T08:58:41.590Z,8.38
2023-05-02T09:01:13.065Z,9.88
2023-05-02T09:03:40.564Z,5.73
2023-05-02T09:06:18.251Z,3.95
2023-05-02T09:08:46.489Z,5.55
2023-05-02T09:11:13.476Z,7.60
2023-05-02T09:13:42.055Z,6.47
2023-05-02T09:16:18.012Z,8.35
2023-05-02T09:18:49.842Z,6.03
2023-05-02T09:21:25.436Z,4.05
2023-05-02T09:23:57.288Z,6.28
2023-05-02T09:26:31.844Z,6.70
2023-05-02T09:29:02.435Z,6.47
2023-05-02T09:31:54.328Z,8.05
2023-05-02T09:34:20.908Z,5.78
2023-05-02T09:36:56.148Z,4.63
2023-05-02T09:39:29.071Z,10.05
2023-05-02T09:41:55.991Z,5.25
2023-05-02T09:44:27.048Z,4.57
2023-05-02T09:47:02.145Z,4.70
2023-05-02T09:49:39.475Z,4.95
2023-05-02T09:52:17.637Z,3.78
2023-05-02T09:54:46.926Z,5.53
2023-05-02T09:57:17.734Z,5.20
2023-05-02T09:59:58.577Z,6.30
2023-05-02T10:02:26.135Z,7.32
2023-05-02T10:04:56.760Z,6.88
2023-05-02T10:07:23.517Z,4.20
2023-05-02T10:09:54.711Z,4.93
2023-05-02T10:12:29.661Z,5.10
2023-05-02T10:15:01.053Z,6.35
2023-05-02T10:17:31.993Z,9.43
2023-05-02T10:20:05.482Z,9.02
2023-05-02T10:22:34.581Z,4.00
2023-05-02T10:25:03.281Z,6.25
2023-05-02T10:27:31.757Z,12.20
2023-05-02T10:29:59.703Z,5.88
2023-05-02T10:32:30.069Z,7.70
2023-05-02T10:34:58.156Z,7.00
2023-05-02T10:37:26.621Z,7.97
2023-05-02T10:39:53.465Z,6.00
2023-05-02T10:42:21.474Z,7.13
2023-05-02T10:44:50.442Z,7.72
2023-05-02T10:47:24.428Z,6.60
2023-05-02T10:49:55.189Z,11.13
2023-05-02T10:52:38.053Z,6.65
2023-05-02T10:55:19.295Z,8.00
2023-05-02T10:58:00.998Z,6.60
2023-05-02T11:00:33.531Z,5.70
2023-05-02T11:03:01.063Z,6.00
2023-05-02T11:05:28.298Z,4.68
2023-05-02T11:08:18.649Z,5.85
2023-05-02T11:10:47.300Z,8.15
2023-05-02T11:13:14.467Z,9.05
2023-05-02T11:15:41.118Z,7.25
2023-05-02T11:18:15.135Z,3.92
2023-05-02T11:20:42.708Z,7.78
2023-05-02T11:23:15.477Z,6.75
2023-05-02T11:25:44.094Z,8.15
2023-05-02T11:28:39.362Z,11.82
2023-05-02T11:31:10.845Z,6.68
2023-05-02T11:33:37.604Z,5.80
2023-05-02T11:36:04.461Z,7.07
2023-05-02T11:38:37.575Z,7.82
2023-05-02T11:41:04.624Z,9.52
2023-05-02T11:43:32.386Z,9.43
2023-05-02T11:46:00.482Z,5.53
2023-05-02T11:48:27.909Z,8.20
2023-05-02T11:50:56.006Z,11.65
2023-05-02T11:53:29.236Z,7.43
2023-05-02T11:55:57.812Z,9.15
2023-05-02T11:58:26.674Z,7.63
2023-05-02T12:00:53.915Z,9.77
2023-05-02T12:03:22.111Z,8.40
2023-05-02T12:05:49.398Z,10.80
2023-05-02T12:08:28.626Z,7.47
2023-05-02T12:10:56.453Z,12.93
2023-05-02T12:13:25.147Z,5.22
2023-05-02T12:15:53.550Z,9.82
2023-05-02T12:18:23.829Z,11.20
2023-05-02T12:20:52.245Z,9.13
2023-05-02T12:23:24.067Z,12.07
2023-05-02T12:28:19.543Z,8.90
2023-05-02T12:30:49.307Z,12.00
2023-05-02T12:33:17.388Z,8.95
2023-05-02T12:35:47.404Z,15.65
2023-05-02T12:38:16.767Z,11.32
2023-05-02T12:40:53.418Z,10.75
2023-05-02T12:43:23.584Z,7.72
2023-05-02T12:45:53.574Z,10.20
2023-05-02T12:48:27.853Z,8.15
2023-05-02T12:50:55.542Z,6.95
2023-05-02T12:53:42.169Z,11.82
2023-05-02T12:56:10.297Z,9.27
2023-05-02T12:58:47.871Z,8.40
2023-05-02T13:01:15.644Z,10.23
2023-05-02T13:03:44.770Z,10.65
2023-05-02T13:06:11.581Z,7.70
2023-05-02T13:08:38.422Z,8.25
2023-05-02T13:11:05.184Z,7.07
2023-05-02T13:13:32.802Z,9.25
2023-05-02T13:15:59.779Z,9.30
2023-05-02T13:18:28.246Z,8.95
2023-05-02T13:20:55.297Z,9.80
2023-05-02T13:23:22.228Z,8.88
2023-05-02T13:25:48.929Z,10.90
2023-05-02T13:28:15.640Z,8.52
2023-05-02T13:30:42.410Z,10.95
2023-05-02T13:33:09.278Z,8.35
2023-05-02T13:35:36.035Z,9.68
2023-05-02T13:38:03.512Z,8.50
2023-05-02T13:40:30.438Z,4.22
2023-05-02T13:43:00.247Z,6.57
2023-05-02T13:45:26.922Z,8.88
2023-05-02T13:47:53.675Z,10.57
2023-05-02T13:50:20.440Z,6.88
2023-05-02T13:52:49.062Z,9.68
2023-05-02T13:55:16.172Z,9.07
2023-05-02T13:57:42.868Z,11.48
2023-05-02T14:00:10.738Z,7.05
2023-05-02T14:02:38.414Z,6.18
2023-05-02T14:05:05.569Z,7.95
2023-05-02T14:07:32.255Z,6.47
2023-05-02T14:09:59.054Z,6.97
2023-05-02T14:12:25.818Z,7.68
2023-05-02T14:14:52.575Z,8.60
2023-05-02T14:17:19.497Z,8.02
2023-05-02T14:19:46.155Z,5.93
2023-05-02T14:22:12.841Z,7.63
2023-05-02T14:24:39.560Z,8.07
2023-05-02T14:27:07.595Z,11.85
2023-05-02T14:29:36.036Z,7.97
2023-05-02T14:32:03.218Z,7.03
2023-05-02T14:34:35.043Z,4.40
2023-05-02T14:37:02.187Z,5.85
2023-05-02T14:39:28.900Z,8.20
2023-05-02T14:41:55.710Z,7.75
2023-05-02T14:44:22.583Z,7.55
2023-05-02T14:46:49.422Z,4.65
2023-05-02T14:49:19.137Z,4.53
2023-05-02T14:51:47.570Z,5.15
2023-05-02T14:54:16.586Z,7.93
2023-05-02T14:56:43.726Z,8.93
2023-05-02T14:59:10.690Z,7.57
2023-05-02T15:01:37.683Z,6.88
2023-05-02T15:04:07.015Z,8.60
2023-05-02T15:06:35.920Z,5.35
2023-05-02T15:09:03.377Z,3.72
2023-05-02T15:11:30.288Z,5.45
2023-05-02T15:13:59.562Z,5.70
2023-05-02T15:16:29.816Z,5.35
2023-05-02T15:18:56.802Z,5.78
2023-05-02T15:21:23.653Z,7.30
2023-05-02T15:23:50.657Z,4.28
2023-05-02T15:26:17.551Z,10.07
2023-05-02T15:28:44.258Z,5.70
2023-05-02T15:31:10.998Z,3.83
2023-05-02T15:33:38.539Z,10.98
2023-05-02T15:36:05.472Z,6.22
2023-05-02T15:38:34.569Z,6.53
2023-05-02T15:41:01.266Z,3.45
2023-05-02T15:43:29.151Z,4.68
2023-05-02T15:45:58.304Z,7.07
2023-05-02T15:48:34.733Z,6.45
2023-05-02T15:51:03.078Z,9.38
2023-05-02T15:53:29.940Z,8.82
2023-05-02T15:55:56.679Z,7.32
2023-05-02T15:58:23.381Z,4.70
2023-05-02T16:00:52.169Z,6.97
2023-05-02T16:03:19.048Z,6.30
2023-05-02T16:05:46.546Z,6.15
2023-05-02T16:08:13.556Z,3.88
2023-05-02T16:10:41.585Z,6.88
2023-05-02T16:13:08.270Z,3.75
2023-05-02T16:15:34.959Z,6.25
2023-05-02T16:18:01.803Z,4.57
2023-05-02T16:20:28.875Z,6.88
2023-05-02T16:22:55.715Z,7.53
2023-05-02T16:25:22.398Z,3.55
2023-05-02T16:27:49.117Z,6.78
2023-05-02T16:30:16.262Z,7.63
2023-05-02T16:32:43.122Z,5.25
2023-05-02T16:35:12.852Z,4.53
2023-05-02T16:37:41.243Z,7.70
2023-05-02T16:40:12.206Z,4.22
2023-05-02T16:42:39.998Z,5.00
2023-05-02T16:45:07.492Z,4.55
2023-05-02T16:47:35.678Z,4.32
2023-05-02T16:50:03.062Z,4.60
2023-05-02T16:52:31.322Z,4.90
2023-05-02T16:54:57.998Z,3.78
2023-05-02T16:57:24.624Z,4.45
2023-05-02T16:59:54.280Z,4.18
2023-05-02T17:02:22.091Z,4.57
2023-05-02T17:04:49.796Z,4.95
2023-05-02T17:07:17.738Z,4.15
2023-05-02T17:09:44.726Z,4.40
2023-05-02T17:12:15.603Z,6.20
2023-05-02T17:14:42.675Z,3.17
2023-05-02T17:17:10.028Z,4.07
2023-05-02T17:19:37.206Z,5.55
2023-05-02T17:22:05.032Z,5.38
2023-05-02T17:24:32.471Z,5.25
2023-05-02T17:26:59.774Z,4.93
2023-05-02T17:29:28.738Z,5.05
2023-05-02T17:32:00.600Z,5.50
2023-05-02T17:34:30.188Z,7.28
2023-05-02T17:36:56.971Z,4.90
2023-05-02T17:39:23.682Z,5.63
2023-05-02T17:41:50.420Z,4.25
2023-05-02T17:44:17.516Z,5.72
2023-05-02T17:46:44.322Z,8.07
2023-05-02T17:49:11.292Z,3.03
2023-05-02T17:51:38.018Z,4.78
2023-05-02T17:54:04.755Z,4.88
2023-05-02T17:56:34.450Z,4.15
2023-05-02T17:59:01.208Z,3.78
2023-05-02T18:01:27.918Z,4.03
2023-05-02T18:03:54.867Z,5.93
2023-05-02T18:06:21.746Z,4.05
2023-05-02T18:08:48.420Z,4.75
2023-05-02T18:11:19.353Z,4.85
2023-05-02T18:13:46.317Z,3.42
2023-05-02T18:16:14.043Z,5.63
2023-05-02T18:18:41.532Z,5.75
2023-05-02T18:21:09.459Z,5.85
2023-05-02T18:23:36.241Z,2.67
2023-05-02T18:26:03.287Z,3.58
2023-05-02T18:28:30.215Z,6.10
2023-05-02T18:30:56.890Z,5.85
2023-05-02T18:33:23.652Z,3.08
2023-05-02T18:35:50.574Z,5.13
2023-05-02T18:38:17.485Z,2.85
2023-05-02T18:40:44.201Z,4.93
2023-05-02T18:43:11.053Z,8.23
2023-05-02T18:45:37.810Z,5.50
2023-05-02T18:48:04.709Z,1.67
2023-05-02T18:50:31.641Z,2.22
2023-05-02T18:52:58.284Z,1.95
2023-05-02T18:55:25.438Z,3.08
2023-05-02T18:57:52.334Z,1.60
2023-05-02T19:00:20.119Z,4.82
2023-05-02T19:02:47.257Z,4.88
2023-05-02T19:05:14.892Z,2.95
2023-05-02T19:07:41.527Z,1.98
2023-05-02T19:10:08.545Z,1.77
2023-05-02T19:12:35.408Z,3.08
2023-05-02T19:15:02.948Z,3.10
2023-05-02T19:17:30.075Z,3.53
2023-05-02T19:19:58.246Z,2.95
2023-05-02T19:22:27.538Z,4.20
2023-05-02T19:24:55.039Z,2.55
2023-05-02T19:27:22.483Z,3.03
2023-05-02T19:29:53.296Z,3.17
2023-05-02T19:32:22.218Z,1.75
2023-05-02T19:34:48.885Z,3.53
2023-05-02T19:37:15.555Z,2.20
2023-05-02T19:39:42.269Z,3.10
2023-05-02T19:42:09.192Z,3.35
2023-05-02T19:44:35.856Z,3.22
2023-05-02T19:47:05.328Z,4.20
2023-05-02T19:49:32.049Z,2.35
2023-05-02T19:51:58.716Z,3.47
2023-05-02T19:54:33.127Z,2.95
2023-05-02T19:56:59.914Z,3.95
2023-05-02T19:59:27.461Z,4.40
2023-05-02T20:01:55.096Z,2.60
2023-05-02T20:04:21.761Z,2.53
2023-05-02T20:06:48.537Z,4.82
2023-05-02T20:09:15.240Z,1.30
2023-05-02T20:11:42.081Z,5.68
2023-05-02T20:14:08.853Z,2.35
2023-05-02T20:16:35.607Z,3.83
2023-05-02T20:19:02.392Z,3.38
2023-05-02T20:21:29.074Z,3.13
2023-05-02T20:23:55.792Z,3.97
2023-05-02T20:26:22.467Z,3.65
2023-05-02T20:28:49.168Z,1.55
2023-05-02T20:31:15.881Z,1.92
2023-05-02T20:33:45.826Z,3.40
2023-05-02T20:36:14.789Z,4.55
2023-05-02T20:38:42.866Z,7.70
2023-05-02T20:41:12.508Z,2.97
2023-05-02T20:43:44.805Z,2.35
2023-05-02T20:46:13.328Z,3.03
2023-05-02T20:48:40.231Z,4.40
2023-05-02T20:51:08.424Z,5.85
2023-05-02T20:53:36.878Z,3.38
2023-05-02T20:56:03.759Z,2.38
2023-05-02T20:58:30.542Z,4.20
2023-05-02T21:00:59.860Z,2.95
2023-05-02T21:03:27.699Z,2.15
2023-05-02T21:05:59.597Z,4.90
2023-05-02T21:08:26.454Z,3.90
2023-05-02T21:10:53.490Z,4.53
2023-05-02T21:13:20.276Z,3.28
2023-05-02T21:15:47.040Z,1.73
2023-05-02T21:18:13.840Z,4.38
2023-05-02T21:20:41.494Z,4.28
2023-05-02T21:23:11.121Z,4.00
2023-05-02T21:25:38.398Z,4.57
2023-05-02T21:28:05.923Z,3.90
2023-05-02T21:30:32.938Z,1.67
2023-05-02T21:32:59.756Z,3.20
2023-05-02T21:35:27.377Z,3.70
2023-05-02T21:37:54.091Z,3.95
2023-05-02T21:40:23.369Z,5.35
2023-05-02T21:42:50.097Z,5.40
2023-05-02T21:45:16.860Z,3.50
2023-05-02T21:47:46.453Z,5.85
2023-05-02T21:50:13.238Z,3.55
2023-05-02T21:52:39.920Z,5.45
2023-05-02T21:55:07.022Z,7.78
2023-05-02T21:57:33.700Z,7.32
2023-05-02T22:00:00.758Z,4.20
2023-05-02T22:02:28.030Z,3.60
2023-05-02T22:04:54.859Z,4.03
2023-05-02T22:07:21.732Z,3.25
2023-05-02T22:09:48.903Z,3.10
2023-05-02T22:12:15.588Z,5.18
2023-05-02T22:14:45.789Z,3.60
2023-05-02T22:17:13.375Z,4.22
2023-05-02T22:19:40.557Z,3.42
2023-05-02T22:22:07.361Z,3.72
2023-05-02T22:24:34.169Z,5.78
2023-05-02T22:27:01.435Z,4.30
2023-05-02T22:29:28.485Z,4.97
2023-05-02T22:31:55.634Z,5.35
2023-05-02T22:34:23.051Z,3.17
2023-05-02T22:36:49.775Z,3.92
2023-05-02T22:39:16.621Z,2.78
2023-05-02T22:41:43.401Z,4.75
2023-05-02T22:44:11.089Z,2.90
2023-05-02T22:46:39.035Z,7.75
2023-05-02T22:49:09.438Z,6.28
2023-05-02T22:51:41.645Z,5.55
2023-05-02T22:54:08.453Z,5.65
2023-05-02T22:56:35.394Z,3.13
2023-05-02T22:59:02.219Z,3.90
2023-05-02T23:01:29.041Z,2.75
2023-05-02T23:03:55.860Z,5.35
2023-05-02T23:06:22.763Z,5.22
2023-05-02T23:08:49.564Z,4.35
2023-05-02T23:11:16.718Z,6.03
2023-05-02T23:13:43.446Z,5.05
2023-05-02T23:16:10.172Z,7.45
2023-05-02T23:18:36.788Z,6.10
2023-05-02T23:21:05.012Z,4.60
2023-05-02T23:23:31.743Z,4.30
2023-05-02T23:25:58.625Z,6.88
2023-05-02T23:28:26.072Z,5.35
2023-05-02T23:30:53.551Z,3.25
2023-05-02T23:33:20.496Z,7.50
2023-05-02T23:35:47.626Z,6.97
2023-05-02T23:38:14.579Z,8.13
2023-05-02T23:40:41.255Z,5.97
2023-05-02T23:43:08.865Z,4.35
2023-05-02T23:45:35.665Z,6.65
2023-05-02T23:48:02.462Z,2.40
2023-05-02T23:50:29.209Z,2.88
2023-05-02T23:52:55.912Z,6.13
2023-05-02T23:55:22.631Z,4.15
2023-05-02T23:57:49.279Z,5.28
